sensor_id;sensor_type;location;lat;lon;timestamp;pressure;altitude;pressure_sealevel;temperature;humidity
8703;BME280;9002;42.708;23.186;2023-09-30T00:01:41;95409.56;;;20.04;50.69
8703;BME280;9002;42.708;23.186;2023-09-30T00:04:09;95410.38;;;20.17;50.66
8703;BME280;9002;42.708;23.186;2023-09-30T00:06:35;95416.53;;;19.99;51.01
8703;BME280;9002;42.708;23.186;2023-09-30T00:09:02;95411.38;;;20.04;51.46
8703;BME280;9002;42.708;23.186;2023-09-30T00:11:32;95393.44;;;19.89;51.57
8703;BME280;9002;42.708;23.186;2023-09-30T00:13:58;95413.41;;;20.37;51.01
8703;BME280;9002;42.708;23.186;2023-09-30T00:16:25;95387.53;;;20.05;51.25
8703;BME280;9002;42.708;23.186;2023-09-30T00:18:52;95349.38;;;19.91;51.07
8703;BME280;9002;42.708;23.186;2023-09-30T00:21:19;95407.06;;;20.21;50.65
8703;BME280;9002;42.708;23.186;2023-09-30T00:23:46;95400.97;;;20.56;49.33
8703;BME280;9002;42.708;23.186;2023-09-30T00:26:13;95409.44;;;20.58;48.42
8703;BME280;9002;42.708;23.186;2023-09-30T00:28:41;95401.31;;;20.36;49.60
8703;BME280;9002;42.708;23.186;2023-09-30T00:31:08;95400.50;;;20.59;49.20
8703;BME280;9002;42.708;23.186;2023-09-30T00:33:36;95363.41;;;20.08;49.64
8703;BME280;9002;42.708;23.186;2023-09-30T00:36:06;95399.84;;;20.52;49.35
8703;BME280;9002;42.708;23.186;2023-09-30T00:38:33;95398.22;;;20.27;49.46
8703;BME280;9002;42.708;23.186;2023-09-30T00:41:00;95299.44;;;19.44;50.28
8703;BME280;9002;42.708;23.186;2023-09-30T00:43:26;95399.84;;;19.93;51.10
8703;BME280;9002;42.708;23.186;2023-09-30T00:46:01;95412.03;;;19.76;51.77
8703;BME280;9002;42.708;23.186;2023-09-30T00:48:32;95399.28;;;19.91;51.57
8703;BME280;9002;42.708;23.186;2023-09-30T00:50:59;95404.09;;;20.06;51.00
8703;BME280;9002;42.708;23.186;2023-09-30T00:53:27;95397.34;;;20.10;50.95
8703;BME280;9002;42.708;23.186;2023-09-30T00:55:55;95395.75;;;20.09;51.23
8703;BME280;9002;42.708;23.186;2023-09-30T00:58:23;95389.78;;;19.78;51.96
8703;BME280;9002;42.708;23.186;2023-09-30T01:00:56;95396.75;;;19.96;51.68
8703;BME280;9002;42.708;23.186;2023-09-30T01:03:23;95400.28;;;20.25;50.68
8703;BME280;9002;42.708;23.186;2023-09-30T01:05:50;95393.56;;;20.18;50.74
8703;BME280;9002;42.708;23.186;2023-09-30T01:08:17;95389.13;;;20.06;51.56
8703;BME280;9002;42.708;23.186;2023-09-30T01:10:45;95372.56;;;19.94;52.08
8703;BME280;9002;42.708;23.186;2023-09-30T01:13:12;95389.91;;;19.95;52.43
8703;BME280;9002;42.708;23.186;2023-09-30T01:15:39;95393.94;;;19.44;53.92
8703;BME280;9002;42.708;23.186;2023-09-30T01:18:07;95374.34;;;19.70;53.22
8703;BME280;9002;42.708;23.186;2023-09-30T01:20:33;95381.44;;;19.70;53.75
8703;BME280;9002;42.708;23.186;2023-09-30T01:23:03;95392.09;;;19.98;53.28
8703;BME280;9002;42.708;23.186;2023-09-30T01:25:30;95390.47;;;19.97;52.81
8703;BME280;9002;42.708;23.186;2023-09-30T01:27:58;95386.94;;;19.92;52.36
8703;BME280;9002;42.708;23.186;2023-09-30T01:30:31;95396.09;;;20.01;51.94
8703;BME280;9002;42.708;23.186;2023-09-30T01:32:58;95389.56;;;19.80;52.80
8703;BME280;9002;42.708;23.186;2023-09-30T01:35:25;95389.56;;;19.92;52.21
8703;BME280;9002;42.708;23.186;2023-09-30T01:37:52;95389.13;;;19.95;52.30
8703;BME280;9002;42.708;23.186;2023-09-30T01:40:20;95392.41;;;19.90;52.44
8703;BME280;9002;42.708;23.186;2023-09-30T01:42:47;95389.47;;;20.10;51.86
8703;BME280;9002;42.708;23.186;2023-09-30T01:45:14;95387.75;;;20.16;51.80
8703;BME280;9002;42.708;23.186;2023-09-30T01:47:41;95383.41;;;20.09;51.80
8703;BME280;9002;42.708;23.186;2023-09-30T01:50:08;95391.03;;;20.23;51.99
8703;BME280;9002;42.708;23.186;2023-09-30T01:52:35;95386.03;;;20.21;51.74
8703;BME280;9002;42.708;23.186;2023-09-30T01:55:02;95397.44;;;20.38;51.67
8703;BME280;9002;42.708;23.186;2023-09-30T01:57:30;95384.28;;;20.27;52.09
8703;BME280;9002;42.708;23.186;2023-09-30T01:59:57;95362.28;;;20.04;52.30
8703;BME280;9002;42.708;23.186;2023-09-30T02:02:24;95384.66;;;20.19;52.41
8703;BME280;9002;42.708;23.186;2023-09-30T02:04:51;95377.13;;;20.10;52.62
8703;BME280;9002;42.708;23.186;2023-09-30T02:12:43;95352.00;;;19.91;52.24
8703;BME280;9002;42.708;23.186;2023-09-30T02:15:16;95325.28;;;19.59;52.87
8703;BME280;9002;42.708;23.186;2023-09-30T02:17:52;95346.06;;;19.84;52.78
8703;BME280;9002;42.708;23.186;2023-09-30T02:24:48;95378.94;;;19.98;52.51
8703;BME280;9002;42.708;23.186;2023-09-30T02:27:15;95356.66;;;19.77;52.75
8703;BME280;9002;42.708;23.186;2023-09-30T02:29:44;95384.44;;;19.85;52.84
8703;BME280;9002;42.708;23.186;2023-09-30T02:32:11;95358.63;;;19.59;52.98
8703;BME280;9002;42.708;23.186;2023-09-30T02:34:39;95328.94;;;19.05;53.71
8703;BME280;9002;42.708;23.186;2023-09-30T02:37:08;95386.06;;;19.44;53.36
8703;BME280;9002;42.708;23.186;2023-09-30T02:39:35;95389.19;;;19.65;52.47
8703;BME280;9002;42.708;23.186;2023-09-30T02:42:02;95394.56;;;19.70;51.94
8703;BME280;9002;42.708;23.186;2023-09-30T02:44:29;95386.13;;;19.56;52.41
8703;BME280;9002;42.708;23.186;2023-09-30T02:46:57;95375.28;;;19.23;52.94
8703;BME280;9002;42.708;23.186;2023-09-30T02:49:24;95384.69;;;19.12;52.93
8703;BME280;9002;42.708;23.186;2023-09-30T02:51:51;95386.75;;;19.10;52.65
8703;BME280;9002;42.708;23.186;2023-09-30T02:54:17;95389.22;;;18.75;53.23
8703;BME280;9002;42.708;23.186;2023-09-30T02:56:44;95392.22;;;18.78;53.53
8703;BME280;9002;42.708;23.186;2023-09-30T02:59:13;95341.31;;;18.68;52.68
8703;BME280;9002;42.708;23.186;2023-09-30T03:01:40;95379.91;;;19.09;52.05
8703;BME280;9002;42.708;23.186;2023-09-30T03:04:08;95367.16;;;18.83;52.53
8703;BME280;9002;42.708;23.186;2023-09-30T03:06:38;95390.16;;;19.10;52.29
8703;BME280;9002;42.708;23.186;2023-09-30T03:09:05;95393.38;;;19.12;52.61
8703;BME280;9002;42.708;23.186;2023-09-30T03:11:31;95387.31;;;19.12;52.75
8703;BME280;9002;42.708;23.186;2023-09-30T03:13:59;95356.53;;;18.77;52.93
8703;BME280;9002;42.708;23.186;2023-09-30T03:16:26;95396.13;;;18.88;53.70
8703;BME280;9002;42.708;23.186;2023-09-30T03:18:53;95387.78;;;18.79;53.61
8703;BME280;9002;42.708;23.186;2023-09-30T03:21:22;95391.72;;;18.33;55.37
8703;BME280;9002;42.708;23.186;2023-09-30T03:23:49;95397.38;;;18.30;55.73
8703;BME280;9002;42.708;23.186;2023-09-30T03:26:16;95387.56;;;18.44;55.45
8703;BME280;9002;42.708;23.186;2023-09-30T03:28:43;95392.69;;;18.51;55.91
8703;BME280;9002;42.708;23.186;2023-09-30T03:31:09;95389.44;;;18.55;55.23
8703;BME280;9002;42.708;23.186;2023-09-30T03:33:37;95372.31;;;18.53;54.93
8703;BME280;9002;42.708;23.186;2023-09-30T03:36:04;95382.09;;;18.45;55.65
8703;BME280;9002;42.708;23.186;2023-09-30T03:38:36;95355.97;;;18.21;56.00
8703;BME280;9002;42.708;23.186;2023-09-30T03:41:02;95370.13;;;18.49;56.05
8703;BME280;9002;42.708;23.186;2023-09-30T03:43:33;95346.66;;;18.43;55.49
8703;BME280;9002;42.708;23.186;2023-09-30T03:46:02;95365.00;;;18.25;56.16
8703;BME280;9002;42.708;23.186;2023-09-30T03:48:29;95389.16;;;18.82;54.96
8703;BME280;9002;42.708;23.186;2023-09-30T03:50:56;95355.94;;;18.75;54.61
8703;BME280;9002;42.708;23.186;2023-09-30T03:53:23;95380.22;;;19.01;54.54
8703;BME280;9002;42.708;23.186;2023-09-30T03:55:53;95382.75;;;18.77;55.18
8703;BME280;9002;42.708;23.186;2023-09-30T03:58:20;95367.09;;;18.71;54.83
8703;BME280;9002;42.708;23.186;2023-09-30T04:00:47;95362.22;;;18.38;55.68
8703;BME280;9002;42.708;23.186;2023-09-30T04:03:14;95391.09;;;18.49;56.09
8703;BME280;9002;42.708;23.186;2023-09-30T04:05:41;95350.72;;;18.39;55.67
8703;BME280;9002;42.708;23.186;2023-09-30T04:08:08;95362.19;;;18.56;55.53
8703;BME280;9002;42.708;23.186;2023-09-30T04:10:36;95378.09;;;18.61;55.41
8703;BME280;9002;42.708;23.186;2023-09-30T04:13:04;95393.22;;;18.77;55.07
8703;BME280;9002;42.708;23.186;2023-09-30T04:15:32;95309.31;;;18.29;54.42
8703;BME280;9002;42.708;23.186;2023-09-30T04:18:00;95390.63;;;18.77;54.48
8703;BME280;9002;42.708;23.186;2023-09-30T04:20:28;95382.88;;;18.83;54.52
8703;BME280;9002;42.708;23.186;2023-09-30T04:22:55;95392.94;;;18.86;54.14
8703;BME280;9002;42.708;23.186;2023-09-30T04:25:23;95393.22;;;18.77;53.53
8703;BME280;9002;42.708;23.186;2023-09-30T04:27:50;95372.31;;;18.53;53.10
8703;BME280;9002;42.708;23.186;2023-09-30T04:30:19;95406.28;;;18.66;52.69
8703;BME280;9002;42.708;23.186;2023-09-30T04:32:47;95390.88;;;18.51;51.70
8703;BME280;9002;42.708;23.186;2023-09-30T04:35:14;95419.72;;;18.51;52.10
8703;BME280;9002;42.708;23.186;2023-09-30T04:37:41;95356.81;;;17.96;52.57
8703;BME280;9002;42.708;23.186;2023-09-30T04:40:09;95407.13;;;18.23;52.89
8703;BME280;9002;42.708;23.186;2023-09-30T04:42:41;95418.19;;;18.25;52.91
8703;BME280;9002;42.708;23.186;2023-09-30T04:45:10;95376.09;;;18.02;52.59
8703;BME280;9002;42.708;23.186;2023-09-30T04:47:39;95403.34;;;18.37;52.03
8703;BME280;9002;42.708;23.186;2023-09-30T04:50:06;95403.53;;;18.18;52.41
8703;BME280;9002;42.708;23.186;2023-09-30T04:52:34;95412.66;;;18.33;52.17
8703;BME280;9002;42.708;23.186;2023-09-30T04:55:01;95389.16;;;17.84;52.88
8703;BME280;9002;42.708;23.186;2023-09-30T04:57:27;95435.09;;;18.04;53.38
8703;BME280;9002;42.708;23.186;2023-09-30T04:59:55;95401.50;;;17.76;54.02
8703;BME280;9002;42.708;23.186;2023-09-30T05:02:23;95417.13;;;18.08;53.35
8703;BME280;9002;42.708;23.186;2023-09-30T05:04:51;95411.50;;;17.86;53.33
8703;BME280;9002;42.708;23.186;2023-09-30T05:07:19;95414.53;;;17.83;53.87
8703;BME280;9002;42.708;23.186;2023-09-30T05:09:46;95412.72;;;17.84;53.93
8703;BME280;9002;42.708;23.186;2023-09-30T05:12:13;95415.72;;;17.87;53.65
8703;BME280;9002;42.708;23.186;2023-09-30T05:14:41;95432.69;;;18.03;53.29
8703;BME280;9002;42.708;23.186;2023-09-30T05:17:08;95441.97;;;17.99;53.31
8703;BME280;9002;42.708;23.186;2023-09-30T05:19:35;95379.59;;;17.71;53.30
8703;BME280;9002;42.708;23.186;2023-09-30T05:22:04;95437.19;;;17.96;54.36
8703;BME280;9002;42.708;23.186;2023-09-30T05:24:31;95441.91;;;17.87;54.51
8703;BME280;9002;42.708;23.186;2023-09-30T05:26:58;95437.56;;;17.99;53.98
8703;BME280;9002;42.708;23.186;2023-09-30T05:29:24;95434.28;;;18.04;54.19
8703;BME280;9002;42.708;23.186;2023-09-30T05:31:51;95387.97;;;18.04;53.12
8703;BME280;9002;42.708;23.186;2023-09-30T05:34:18;95446.38;;;18.05;54.23
8703;BME280;9002;42.708;23.186;2023-09-30T05:36:45;95452.09;;;18.20;53.55
8703;BME280;9002;42.708;23.186;2023-09-30T05:39:13;95444.81;;;17.97;54.49
8703;BME280;9002;42.708;23.186;2023-09-30T05:41:44;95446.84;;;17.95;54.28
8703;BME280;9002;42.708;23.186;2023-09-30T05:44:12;95446.53;;;18.10;53.31
8703;BME280;9002;42.708;23.186;2023-09-30T05:46:39;95455.44;;;18.02;53.93
8703;BME280;9002;42.708;23.186;2023-09-30T05:49:08;95451.38;;;18.06;53.84
8703;BME280;9002;42.708;23.186;2023-09-30T05:51:38;95455.13;;;18.17;53.99
8703;BME280;9002;42.708;23.186;2023-09-30T05:54:06;95444.41;;;18.43;52.65
8703;BME280;9002;42.708;23.186;2023-09-30T05:56:35;95460.63;;;18.34;53.12
8703;BME280;9002;42.708;23.186;2023-09-30T05:59:02;95451.44;;;18.25;53.44
8703;BME280;9002;42.708;23.186;2023-09-30T06:01:30;95406.97;;;17.93;53.46
8703;BME280;9002;42.708;23.186;2023-09-30T06:03:57;95458.25;;;17.83;54.68
8703;BME280;9002;42.708;23.186;2023-09-30T06:06:25;95445.63;;;18.23;53.99
8703;BME280;9002;42.708;23.186;2023-09-30T06:08:52;95452.44;;;18.24;53.86
8703;BME280;9002;42.708;23.186;2023-09-30T06:11:19;95462.22;;;18.35;53.87
8703;BME280;9002;42.708;23.186;2023-09-30T06:13:51;95427.34;;;17.91;54.42
8703;BME280;9002;42.708;23.186;2023-09-30T06:16:18;95459.47;;;18.48;54.32
8703;BME280;9002;42.708;23.186;2023-09-30T06:18:45;95474.63;;;18.46;53.29
8703;BME280;9002;42.708;23.186;2023-09-30T06:21:12;95414.25;;;17.91;54.17
8703;BME280;9002;42.708;23.186;2023-09-30T06:23:40;95410.06;;;18.08;53.93
8703;BME280;9002;42.708;23.186;2023-09-30T06:26:07;95468.38;;;18.65;53.55
8703;BME280;9002;42.708;23.186;2023-09-30T06:28:35;95466.78;;;18.64;53.17
8703;BME280;9002;42.708;23.186;2023-09-30T06:31:07;95471.03;;;18.59;53.48
8703;BME280;9002;42.708;23.186;2023-09-30T06:33:34;95476.72;;;18.56;54.14
8703;BME280;9002;42.708;23.186;2023-09-30T06:36:01;95455.94;;;18.61;53.08
8703;BME280;9002;42.708;23.186;2023-09-30T06:38:28;95484.56;;;18.80;53.11
8703;BME280;9002;42.708;23.186;2023-09-30T06:40:55;95477.06;;;18.84;53.10
8703;BME280;9002;42.708;23.186;2023-09-30T06:43:22;95468.59;;;19.00;52.72
8703;BME280;9002;42.708;23.186;2023-09-30T06:45:49;95469.81;;;19.16;52.08
8703;BME280;9002;42.708;23.186;2023-09-30T06:48:17;95445.09;;;18.94;51.68
8703;BME280;9002;42.708;23.186;2023-09-30T06:50:44;95468.47;;;19.25;51.34
8703;BME280;9002;42.708;23.186;2023-09-30T06:53:11;95471.38;;;19.35;51.00
8703;BME280;9002;42.708;23.186;2023-09-30T06:55:38;95476.91;;;19.45;50.69
8703;BME280;9002;42.708;23.186;2023-09-30T06:58:06;95457.47;;;19.35;50.23
8703;BME280;9002;42.708;23.186;2023-09-30T07:00:34;95476.16;;;19.57;49.27
8703;BME280;9002;42.708;23.186;2023-09-30T07:03:01;95454.19;;;19.21;48.46
8703;BME280;9002;42.708;23.186;2023-09-30T07:05:29;95473.28;;;19.28;48.85
8703;BME280;9002;42.708;23.186;2023-09-30T07:07:56;95491.19;;;19.50;48.63
8703;BME280;9002;42.708;23.186;2023-09-30T07:10:23;95489.22;;;19.75;48.51
8703;BME280;9002;42.708;23.186;2023-09-30T07:12:50;95484.44;;;19.84;48.35
8703;BME280;9002;42.708;23.186;2023-09-30T07:15:16;95481.66;;;19.67;48.30
8703;BME280;9002;42.708;23.186;2023-09-30T07:17:44;95488.31;;;19.81;48.88
8703;BME280;9002;42.708;23.186;2023-09-30T07:20:13;95449.59;;;19.35;49.11
8703;BME280;9002;42.708;23.186;2023-09-30T07:22:41;95481.78;;;19.72;48.82
8703;BME280;9002;42.708;23.186;2023-09-30T07:25:08;95434.75;;;19.59;47.76
8703;BME280;9002;42.708;23.186;2023-09-30T07:27:35;95474.19;;;19.94;47.61
8703;BME280;9002;42.708;23.186;2023-09-30T07:30:02;95426.41;;;19.62;47.81
8703;BME280;9002;42.708;23.186;2023-09-30T07:32:32;95409.97;;;19.66;47.06
8703;BME280;9002;42.708;23.186;2023-09-30T07:34:59;95447.25;;;19.98;46.87
8703;BME280;9002;42.708;23.186;2023-09-30T07:37:26;95454.91;;;20.11;45.81
8703;BME280;9002;42.708;23.186;2023-09-30T07:39:54;95447.81;;;19.89;46.58
8703;BME280;9002;42.708;23.186;2023-09-30T07:42:23;95486.56;;;20.17;46.73
8703;BME280;9002;42.708;23.186;2023-09-30T07:44:56;95479.94;;;20.14;47.11
8703;BME280;9002;42.708;23.186;2023-09-30T07:50:15;95486.38;;;20.41;47.08
8703;BME280;9002;42.708;23.186;2023-09-30T07:52:46;95489.34;;;20.57;46.78
8703;BME280;9002;42.708;23.186;2023-09-30T07:55:33;95367.75;;;19.79;46.66
8703;BME280;9002;42.708;23.186;2023-09-30T07:58:10;95452.19;;;20.53;46.37
8703;BME280;9002;42.708;23.186;2023-09-30T08:03:19;95438.47;;;20.51;45.14
8703;BME280;9002;42.708;23.186;2023-09-30T08:05:46;95479.56;;;20.81;45.17
8703;BME280;9002;42.708;23.186;2023-09-30T08:08:13;95484.25;;;21.02;44.93
8703;BME280;9002;42.708;23.186;2023-09-30T08:10:42;95455.44;;;20.84;43.64
8703;BME280;9002;42.708;23.186;2023-09-30T08:13:09;95481.63;;;20.90;44.27
8703;BME280;9002;42.708;23.186;2023-09-30T08:15:35;95488.59;;;20.85;44.12
8703;BME280;9002;42.708;23.186;2023-09-30T08:18:03;95469.06;;;20.81;44.31
8703;BME280;9002;42.708;23.186;2023-09-30T08:22:59;95475.72;;;21.35;42.81
8703;BME280;9002;42.708;23.186;2023-09-30T08:25:26;95472.91;;;21.41;42.16
8703;BME280;9002;42.708;23.186;2023-09-30T08:27:54;95466.50;;;21.37;42.42
8703;BME280;9002;42.708;23.186;2023-09-30T08:30:20;95467.88;;;21.40;41.65
8703;BME280;9002;42.708;23.186;2023-09-30T08:32:48;95481.03;;;21.68;41.57
8703;BME280;9002;42.708;23.186;2023-09-30T08:35:14;95491.44;;;21.75;41.17
8703;BME280;9002;42.708;23.186;2023-09-30T08:37:41;95486.66;;;21.89;40.79
8703;BME280;9002;42.708;23.186;2023-09-30T08:40:08;95463.34;;;21.81;41.10
8703;BME280;9002;42.708;23.186;2023-09-30T08:42:39;95427.16;;;21.59;40.88
8703;BME280;9002;42.708;23.186;2023-09-30T08:45:10;95474.16;;;22.13;39.80
8703;BME280;9002;42.708;23.186;2023-09-30T08:47:40;95434.84;;;22.28;39.52
8703;BME280;9002;42.708;23.186;2023-09-30T08:50:08;95463.97;;;23.15;37.68
8703;BME280;9002;42.708;23.186;2023-09-30T08:52:37;95427.78;;;23.37;36.96
8703;BME280;9002;42.708;23.186;2023-09-30T08:55:06;95451.84;;;23.63;35.84
8703;BME280;9002;42.708;23.186;2023-09-30T08:57:33;95454.34;;;23.53;36.54
8703;BME280;9002;42.708;23.186;2023-09-30T09:00:02;95463.50;;;23.45;36.64
8703;BME280;9002;42.708;23.186;2023-09-30T09:02:33;95464.31;;;23.24;36.72
8703;BME280;9002;42.708;23.186;2023-09-30T09:05:01;95439.09;;;23.11;36.41
8703;BME280;9002;42.708;23.186;2023-09-30T09:07:28;95459.22;;;23.39;35.58
8703;BME280;9002;42.708;23.186;2023-09-30T09:10:06;95449.94;;;23.36;34.54
8703;BME280;9002;42.708;23.186;2023-09-30T09:12:34;95448.66;;;23.39;34.90
8703;BME280;9002;42.708;23.186;2023-09-30T09:15:02;95446.25;;;23.59;34.72
8703;BME280;9002;42.708;23.186;2023-09-30T09:17:43;95445.16;;;23.55;35.10
8703;BME280;9002;42.708;23.186;2023-09-30T09:20:11;95433.44;;;23.78;34.44
8703;BME280;9002;42.708;23.186;2023-09-30T09:22:40;95425.09;;;23.91;33.75
8703;BME280;9002;42.708;23.186;2023-09-30T09:25:08;95442.97;;;24.11;33.91
8703;BME280;9002;42.708;23.186;2023-09-30T09:27:35;95430.25;;;24.08;33.83
8703;BME280;9002;42.708;23.186;2023-09-30T09:30:18;95439.16;;;24.29;33.95
8703;BME280;9002;42.708;23.186;2023-09-30T09:32:58;95427.03;;;24.38;33.52
8703;BME280;9002;42.708;23.186;2023-09-30T09:35:26;95440.44;;;24.63;33.04
8703;BME280;9002;42.708;23.186;2023-09-30T09:37:58;95421.88;;;24.58;33.39
8703;BME280;9002;42.708;23.186;2023-09-30T09:40:27;95421.69;;;24.70;33.44
8703;BME280;9002;42.708;23.186;2023-09-30T09:42:54;95413.72;;;24.65;32.90
8703;BME280;9002;42.708;23.186;2023-09-30T09:45:22;95431.09;;;25.03;32.86
8703;BME280;9002;42.708;23.186;2023-09-30T09:47:52;95423.97;;;25.09;32.30
8703;BME280;9002;42.708;23.186;2023-09-30T09:50:22;95396.72;;;25.23;31.75
8703;BME280;9002;42.708;23.186;2023-09-30T09:52:50;95418.75;;;25.34;32.33
8703;BME280;9002;42.708;23.186;2023-09-30T09:55:18;95423.00;;;25.45;32.24
8703;BME280;9002;42.708;23.186;2023-09-30T09:57:45;95388.25;;;25.21;31.93
8703;BME280;9002;42.708;23.186;2023-09-30T10:00:14;95419.59;;;25.65;31.84
8703;BME280;9002;42.708;23.186;2023-09-30T10:02:41;95407.63;;;25.52;31.66
8703;BME280;9002;42.708;23.186;2023-09-30T10:05:08;95406.59;;;25.63;31.90
8703;BME280;9002;42.708;23.186;2023-09-30T10:07:44;95390.19;;;25.72;31.05
8703;BME280;9002;42.708;23.186;2023-09-30T10:10:14;95374.25;;;25.61;31.20
8703;BME280;9002;42.708;23.186;2023-09-30T10:12:42;95401.88;;;25.86;31.44
8703;BME280;9002;42.708;23.186;2023-09-30T10:15:34;95408.19;;;26.05;31.44
8703;BME280;9002;42.708;23.186;2023-09-30T10:18:03;95385.13;;;26.16;31.22
8703;BME280;9002;42.708;23.186;2023-09-30T10:20:31;95378.22;;;26.15;30.49
8703;BME280;9002;42.708;23.186;2023-09-30T10:23:23;95398.84;;;26.58;29.93
8703;BME280;9002;42.708;23.186;2023-09-30T10:25:52;95385.78;;;26.72;29.02
8703;BME280;9002;42.708;23.186;2023-09-30T10:28:33;95384.94;;;26.87;28.85
8703;BME280;9002;42.708;23.186;2023-09-30T10:31:11;95385.16;;;27.06;28.51
8703;BME280;9002;42.708;23.186;2023-09-30T10:38:50;95375.91;;;27.37;27.44
8703;BME280;9002;42.708;23.186;2023-09-30T10:41:50;95316.31;;;27.09;27.09
8703;BME280;9002;42.708;23.186;2023-09-30T10:44:33;95373.78;;;27.39;26.99
8703;BME280;9002;42.708;23.186;2023-09-30T10:53:24;95371.09;;;28.12;26.49
8703;BME280;9002;42.708;23.186;2023-09-30T10:55:54;95364.50;;;28.05;26.82
8703;BME280;9002;42.708;23.186;2023-09-30T10:58:21;95360.59;;;28.50;26.05
8703;BME280;9002;42.708;23.186;2023-09-30T11:00:54;95363.69;;;28.86;25.72
8703;BME280;9002;42.708;23.186;2023-09-30T11:03:21;95358.25;;;28.91;25.58
8703;BME280;9002;42.708;23.186;2023-09-30T11:05:50;95364.09;;;28.93;25.45
8703;BME280;9002;42.708;23.186;2023-09-30T11:08:21;95330.09;;;28.13;25.66
8703;BME280;9002;42.708;23.186;2023-09-30T11:10:48;95312.28;;;28.14;25.56
8703;BME280;9002;42.708;23.186;2023-09-30T11:13:16;95353.88;;;29.00;25.15
8703;BME280;9002;42.708;23.186;2023-09-30T11:15:43;95355.41;;;29.06;24.88
8703;BME280;9002;42.708;23.186;2023-09-30T11:18:13;95298.03;;;28.71;24.76
8703;BME280;9002;42.708;23.186;2023-09-30T11:20:41;95332.88;;;29.17;24.82
8703;BME280;9002;42.708;23.186;2023-09-30T11:23:09;95345.53;;;29.63;24.78
8703;BME280;9002;42.708;23.186;2023-09-30T11:25:37;95341.66;;;29.37;25.17
8703;BME280;9002;42.708;23.186;2023-09-30T11:28:15;95317.81;;;29.45;24.87
8703;BME280;9002;42.708;23.186;2023-09-30T11:30:55;95320.53;;;29.59;24.88
8703;BME280;9002;42.708;23.186;2023-09-30T11:33:22;95328.06;;;29.71;24.57
8703;BME280;9002;42.708;23.186;2023-09-30T11:35:57;95300.00;;;29.73;24.46
8703;BME280;9002;42.708;23.186;2023-09-30T11:38:25;95334.22;;;30.31;24.26
8703;BME280;9002;42.708;23.186;2023-09-30T11:40:59;95331.34;;;30.14;24.26
8703;BME280;9002;42.708;23.186;2023-09-30T11:43:27;95323.09;;;29.97;24.34
8703;BME280;9002;42.708;23.186;2023-09-30T11:46:04;95314.84;;;29.79;24.80
8703;BME280;9002;42.708;23.186;2023-09-30T11:48:31;95319.94;;;29.62;25.32
8703;BME280;9002;42.708;23.186;2023-09-30T11:50:59;95316.28;;;30.04;24.57
8703;BME280;9002;42.708;23.186;2023-09-30T11:53:30;95309.13;;;30.32;24.28
8703;BME280;9002;42.708;23.186;2023-09-30T11:55:57;95312.28;;;30.48;24.39
8703;BME280;9002;42.708;23.186;2023-09-30T11:58:26;95260.25;;;30.04;24.31
8703;BME280;9002;42.708;23.186;2023-09-30T12:00:57;95284.00;;;30.61;23.62
8703;BME280;9002;42.708;23.186;2023-09-30T12:03:25;95264.59;;;31.05;23.64
8703;BME280;9002;42.708;23.186;2023-09-30T12:05:52;95293.50;;;31.61;23.06
8703;BME280;9002;42.708;23.186;2023-09-30T12:08:20;95275.78;;;32.27;22.10
8703;BME280;9002;42.708;23.186;2023-09-30T12:10:49;95284.28;;;33.12;21.29
8703;BME280;9002;42.708;23.186;2023-09-30T12:13:16;95279.41;;;32.40;22.03
8703;BME280;9002;42.708;23.186;2023-09-30T12:15:43;95265.44;;;32.52;22.10
8703;BME280;9002;42.708;23.186;2023-09-30T12:18:10;95293.91;;;32.30;22.14
8703;BME280;9002;42.708;23.186;2023-09-30T12:20:39;95283.81;;;32.36;22.08
8703;BME280;9002;42.708;23.186;2023-09-30T12:23:06;95275.69;;;31.57;23.03
8703;BME280;9002;42.708;23.186;2023-09-30T12:25:33;95253.19;;;31.58;22.65
8703;BME280;9002;42.708;23.186;2023-09-30T12:28:03;95271.69;;;31.68;22.51
8703;BME280;9002;42.708;23.186;2023-09-30T12:30:30;95265.16;;;31.38;23.50
8703;BME280;9002;42.708;23.186;2023-09-30T12:32:57;95255.56;;;31.37;23.02
8703;BME280;9002;42.708;23.186;2023-09-30T12:35:24;95271.31;;;31.38;22.59
8703;BME280;9002;42.708;23.186;2023-09-30T12:37:51;95261.19;;;31.80;22.42
8703;BME280;9002;42.708;23.186;2023-09-30T12:40:18;95224.19;;;31.73;22.18
8703;BME280;9002;42.708;23.186;2023-09-30T12:42:45;95261.34;;;31.52;22.73
8703;BME280;9002;42.708;23.186;2023-09-30T12:45:14;95268.44;;;31.35;23.07
8703;BME280;9002;42.708;23.186;2023-09-30T12:47:42;95260.00;;;31.95;21.94
8703;BME280;9002;42.708;23.186;2023-09-30T12:50:09;95266.56;;;31.58;22.65
8703;BME280;9002;42.708;23.186;2023-09-30T12:57:40;95250.22;;;31.59;23.11
8703;BME280;9002;42.708;23.186;2023-09-30T13:00:08;95216.94;;;31.51;22.58
8703;BME280;9002;42.708;23.186;2023-09-30T13:02:36;95144.84;;;31.46;22.58
8703;BME280;9002;42.708;23.186;2023-09-30T13:05:04;95239.06;;;31.97;22.86
8703;BME280;9002;42.708;23.186;2023-09-30T13:07:32;95245.22;;;31.97;22.25
8703;BME280;9002;42.708;23.186;2023-09-30T13:09:59;95236.16;;;32.15;21.74
8703;BME280;9002;42.708;23.186;2023-09-30T13:12:27;95240.78;;;32.24;22.36
8703;BME280;9002;42.708;23.186;2023-09-30T13:14:54;95237.38;;;31.47;22.40
8703;BME280;9002;42.708;23.186;2023-09-30T13:17:21;95244.13;;;31.67;23.28
8703;BME280;9002;42.708;23.186;2023-09-30T13:19:50;95232.66;;;32.06;22.48
8703;BME280;9002;42.708;23.186;2023-09-30T13:22:17;95232.13;;;31.96;22.80
8703;BME280;9002;42.708;23.186;2023-09-30T13:24:44;95241.81;;;31.30;23.71
8703;BME280;9002;42.708;23.186;2023-09-30T13:27:11;95225.59;;;31.71;22.97
8703;BME280;9002;42.708;23.186;2023-09-30T13:29:41;95235.38;;;31.75;22.94
8703;BME280;9002;42.708;23.186;2023-09-30T13:32:09;95227.25;;;31.36;23.03
8703;BME280;9002;42.708;23.186;2023-09-30T13:34:35;95236.97;;;31.09;24.00
8703;BME280;9002;42.708;23.186;2023-09-30T13:37:03;95233.09;;;31.15;23.20
8703;BME280;9002;42.708;23.186;2023-09-30T13:39:30;95204.25;;;31.12;23.27
8703;BME280;9002;42.708;23.186;2023-09-30T13:41:59;95203.69;;;31.15;23.22
8703;BME280;9002;42.708;23.186;2023-09-30T13:44:26;95205.56;;;31.15;23.23
8703;BME280;9002;42.708;23.186;2023-09-30T13:46:53;95227.06;;;31.85;23.40
8703;BME280;9002;42.708;23.186;2023-09-30T13:49:19;95191.91;;;31.70;22.49
8703;BME280;9002;42.708;23.186;2023-09-30T13:51:46;95196.81;;;31.76;22.95